Time;durP1;ratioP1;P1;durP2;ratioP2;P2;SDS_P1;SDS_P2;PMS_P1;PMS_P2;Temp;Humidity;BMP_temperature;BMP_pressure;BME280_temperature;BME280_humidity;BME280_pressure;Samples;Min_cycle;Max_cycle;Signal;HPM_P1;HPM_P2
2021/01/30 00:02:06;;;;;;;19.20;9.88;;;-0.80;99.90;;;;;;5030342;28;20108;-54
2021/01/30 00:04:32;;;;;;;18.25;9.30;;;-0.80;99.90;;;;;;5030142;28;20025;-54
2021/01/30 00:06:58;;;;;;;24.25;11.38;;;-0.80;99.90;;;;;;5032653;28;20106;-51
2021/01/30 00:09:25;;;;;;;21.85;10.77;;;-0.80;99.90;;;;;;5020721;28;20419;-50
2021/01/30 00:11:54;;;;;;;20.13;10.52;;;-0.80;99.90;;;;;;5032220;28;20034;-52
2021/01/30 00:14:22;;;;;;;20.42;9.23;;;-0.80;99.90;;;;;;5034089;28;20027;-53
2021/01/30 00:16:47;;;;;;;20.98;9.90;;;-0.80;99.90;;;;;;5034164;28;20040;-52
2021/01/30 00:19:13;;;;;;;20.70;11.00;;;-0.90;99.90;;;;;;5034125;28;20452;-51
2021/01/30 00:21:38;;;;;;;21.88;10.02;;;-0.90;99.90;;;;;;5033650;28;20477;-49
2021/01/30 00:24:05;;;;;;;18.48;8.48;;;-0.90;99.90;;;;;;5033836;28;20044;-54
2021/01/30 00:26:31;;;;;;;20.15;10.00;;;-0.90;99.90;;;;;;5032006;28;20022;-51
2021/01/30 00:28:56;;;;;;;18.17;8.82;;;-0.90;99.90;;;;;;5033905;28;20029;-50
2021/01/30 00:31:22;;;;;;;17.83;9.05;;;-0.90;99.90;;;;;;5034113;28;20361;-53
2021/01/30 00:33:47;;;;;;;20.98;8.57;;;-0.90;99.90;;;;;;5033919;28;20033;-54
2021/01/30 00:36:13;;;;;;;19.40;9.38;;;-0.90;99.90;;;;;;5034031;28;20037;-50
2021/01/30 00:38:38;;;;;;;16.40;8.43;;;-0.90;99.90;;;;;;5033556;28;20041;-52
2021/01/30 00:41:04;;;;;;;20.48;9.50;;;-1.00;99.90;;;;;;5033866;28;20417;-54
2021/01/30 00:43:29;;;;;;;27.38;12.13;;;-1.00;99.90;;;;;;5032707;28;20048;-55
2021/01/30 00:45:55;;;;;;;19.65;10.20;;;-1.00;99.90;;;;;;5033869;28;20045;-55
2021/01/30 00:48:21;;;;;;;26.58;10.73;;;-1.00;99.90;;;;;;5033884;28;20093;-54
2021/01/30 00:50:47;;;;;;;24.15;11.32;;;-1.00;99.90;;;;;;5033451;28;20129;-54
2021/01/30 00:53:13;;;;;;;18.95;10.50;;;-1.00;99.90;;;;;;5033317;28;20491;-51
2021/01/30 00:55:38;;;;;;;22.08;11.02;;;-1.00;99.90;;;;;;5032083;28;20508;-54
2021/01/30 00:58:05;;;;;;;18.77;9.10;;;-1.00;99.90;;;;;;5032607;28;20033;-54
2021/01/30 01:00:30;;;;;;;22.25;10.15;;;-1.00;99.90;;;;;;5032215;28;20072;-54
2021/01/30 01:02:56;;;;;;;21.50;11.13;;;-1.00;99.90;;;;;;5033200;28;20029;-54
2021/01/30 01:05:22;;;;;;;19.05;9.05;;;-1.00;99.90;;;;;;5032843;28;20037;-51
2021/01/30 01:07:48;;;;;;;16.33;8.10;;;-1.00;99.90;;;;;;5033006;28;20044;-51
2021/01/30 01:10:19;;;;;;;17.02;8.35;;;-1.00;99.90;;;;;;5033473;28;20021;-51
2021/01/30 01:12:45;;;;;;;19.85;10.80;;;-1.00;99.90;;;;;;5032029;28;20041;-54
2021/01/30 01:15:11;;;;;;;24.10;10.60;;;-1.00;99.90;;;;;;5033401;28;20081;-53
2021/01/30 01:17:37;;;;;;;19.83;10.13;;;-1.00;99.90;;;;;;5032888;28;20420;-50
2021/01/30 01:20:08;;;;;;;20.63;10.65;;;-1.00;99.90;;;;;;5033038;28;20034;-53
2021/01/30 01:22:33;;;;;;;22.05;10.13;;;-1.00;99.90;;;;;;5033047;28;20389;-52
2021/01/30 01:24:59;;;;;;;23.00;11.18;;;-1.00;99.90;;;;;;5032943;28;20032;-56
2021/01/30 01:27:24;;;;;;;21.25;10.48;;;-1.00;99.90;;;;;;5032179;28;20052;-52
2021/01/30 01:29:50;;;;;;;22.52;10.77;;;-1.00;99.90;;;;;;5032713;28;20026;-55
2021/01/30 01:32:15;;;;;;;17.75;8.82;;;-1.00;99.90;;;;;;5031530;28;20048;-52
2021/01/30 01:34:43;;;;;;;16.02;9.20;;;-0.90;99.90;;;;;;5032556;28;20029;-54
2021/01/30 01:37:09;;;;;;;19.77;8.70;;;-0.90;99.90;;;;;;5032744;28;20567;-52
2021/01/30 01:39:35;;;;;;;19.23;10.02;;;-0.90;99.90;;;;;;5032736;28;20104;-54
2021/01/30 01:42:12;;;;;;;20.25;10.48;;;-0.90;99.90;;;;;;5031429;28;20119;-53
2021/01/30 01:44:38;;;;;;;17.05;9.07;;;-0.90;99.90;;;;;;5032422;28;20021;-54
2021/01/30 01:47:21;;;;;;;22.13;10.30;;;-0.90;99.90;;;;;;5033177;28;20025;-52
2021/01/30 01:49:47;;;;;;;23.00;12.00;;;-0.90;99.90;;;;;;5049537;28;20067;-50
2021/01/30 01:52:22;;;;;;;21.05;8.63;;;-0.90;99.90;;;;;;5034106;28;20029;-55
2021/01/30 01:54:55;;;;;;;19.42;9.68;;;-0.90;99.90;;;;;;5033749;28;20065;-52
2021/01/30 01:57:23;;;;;;;17.15;9.05;;;-0.90;99.90;;;;;;5033314;28;20358;-53
2021/01/30 01:59:55;;;;;;;19.45;10.48;;;-0.90;99.90;;;;;;5033850;28;20048;-51
2021/01/30 02:02:22;;;;;;;16.23;8.10;;;-0.90;99.90;;;;;;5033980;28;20041;-54
2021/01/30 02:05:01;;;;;;;18.08;9.77;;;-0.90;99.90;;;;;;5033827;28;20026;-53
2021/01/30 02:07:29;;;;;;;15.50;8.07;;;-0.90;99.90;;;;;;5033944;28;20053;-53
2021/01/30 02:09:56;;;;;;;16.65;9.07;;;-0.90;99.90;;;;;;5033663;28;20021;-55
2021/01/30 02:12:24;;;;;;;23.05;10.95;;;-0.90;99.90;;;;;;5032634;28;20033;-51
2021/01/30 02:14:53;;;;;;;19.00;8.90;;;-0.80;99.90;;;;;;5033482;28;20105;-53
2021/01/30 02:17:39;;;;;;;17.00;9.68;;;-0.90;99.90;;;;;;5033657;28;20029;-52
2021/01/30 02:20:41;;;;;;;11.68;7.13;;;-0.90;99.90;;;;;;5033608;28;20373;-50
2021/01/30 02:23:25;;;;;;;12.57;7.57;;;-0.90;99.90;;;;;;5033420;28;20033;-54
2021/01/30 02:26:22;;;;;;;13.75;7.97;;;-0.90;99.90;;;;;;5033371;28;20060;-51
2021/01/30 02:29:25;;;;;;;12.73;6.90;;;-0.90;99.90;;;;;;5032939;28;20480;-54
2021/01/30 02:32:25;;;;;;;14.45;7.20;;;-0.90;99.90;;;;;;5033232;28;20025;-52
2021/01/30 02:35:15;;;;;;;16.77;8.55;;;-0.90;99.90;;;;;;5031796;28;20116;-55
2021/01/30 02:37:56;;;;;;;17.35;8.00;;;-0.90;99.90;;;;;;5033275;28;20091;-54
2021/01/30 02:40:24;;;;;;;13.20;7.30;;;-0.90;99.90;;;;;;5033332;28;20068;-52
2021/01/30 02:43:06;;;;;;;18.30;8.77;;;-0.90;99.90;;;;;;5032088;28;20477;-49
2021/01/30 02:45:37;;;;;;;8.60;5.10;;;-0.90;99.90;;;;;;5033018;28;20404;-54
2021/01/30 02:48:11;;;;;;;14.80;9.02;;;-0.90;99.90;;;;;;5033019;28;20039;-52
2021/01/30 02:50:46;;;;;;;14.25;7.65;;;-0.90;99.90;;;;;;5032911;28;20009;-53
2021/01/30 02:53:26;;;;;;;15.18;7.53;;;-0.90;99.90;;;;;;5032546;28;20121;-51
2021/01/30 02:55:55;;;;;;;12.13;7.35;;;-0.90;99.90;;;;;;5031837;28;20034;-51
2021/01/30 02:58:28;;;;;;;16.58;8.95;;;-0.90;99.90;;;;;;5031245;28;20025;-55
2021/01/30 03:00:57;;;;;;;19.42;9.88;;;-0.90;99.90;;;;;;5031753;28;20029;-55
2021/01/30 03:03:23;;;;;;;18.92;8.60;;;-0.90;99.90;;;;;;5031938;28;20025;-52
2021/01/30 03:05:50;;;;;;;13.07;7.35;;;-0.90;99.90;;;;;;5031714;28;20035;-49
2021/01/30 03:08:24;;;;;;;14.63;7.57;;;-1.00;99.90;;;;;;5031971;28;20028;-54
2021/01/30 03:11:03;;;;;;;13.55;7.15;;;-0.90;99.90;;;;;;5031487;28;20077;-51
2021/01/30 03:13:37;;;;;;;16.40;8.43;;;-0.90;99.90;;;;;;5031148;28;20064;-51
2021/01/30 03:16:26;;;;;;;17.42;8.77;;;-0.90;99.90;;;;;;5031757;28;20037;-52
2021/01/30 03:18:56;;;;;;;22.50;10.07;;;-0.90;99.90;;;;;;5031231;28;20044;-55
2021/01/30 03:21:23;;;;;;;16.33;8.60;;;-1.00;99.90;;;;;;5031646;28;20025;-52
2021/01/30 03:23:51;;;;;;;18.35;8.10;;;-0.90;99.90;;;;;;5031803;28;20431;-55
2021/01/30 03:26:20;;;;;;;14.50;7.55;;;-0.90;99.90;;;;;;5029632;28;20410;-55
2021/01/30 03:28:46;;;;;;;12.50;7.53;;;-1.00;99.90;;;;;;5031683;28;20021;-54
2021/01/30 03:31:12;;;;;;;14.77;7.57;;;-1.00;99.90;;;;;;5031554;28;20033;-51
2021/01/30 03:33:38;;;;;;;13.82;7.43;;;-0.90;99.90;;;;;;5031441;28;20040;-53
2021/01/30 03:36:04;;;;;;;12.48;7.18;;;-1.00;99.90;;;;;;5031428;28;20033;-53
2021/01/30 03:38:30;;;;;;;15.35;7.38;;;-1.00;99.90;;;;;;5031780;28;20388;-52
2021/01/30 03:40:56;;;;;;;14.40;7.65;;;-1.00;99.90;;;;;;5030113;28;20037;-52
2021/01/30 03:43:21;;;;;;;11.48;6.68;;;-1.00;99.90;;;;;;5030819;28;20040;-51
2021/01/30 03:45:47;;;;;;;11.30;5.95;;;-1.00;99.90;;;;;;5031566;28;20144;-50
2021/01/30 03:48:12;;;;;;;14.82;7.10;;;-1.00;99.90;;;;;;5031409;28;20079;-51
2021/01/30 03:50:38;;;;;;;15.32;7.00;;;-1.00;99.90;;;;;;5031348;28;20032;-53
2021/01/30 03:53:06;;;;;;;11.18;6.53;;;-0.90;99.90;;;;;;5028799;28;514765;-55
2021/01/30 03:55:31;;;;;;;9.93;5.47;;;-1.00;99.90;;;;;;5032227;28;20036;-53
2021/01/30 03:57:57;;;;;;;12.43;7.15;;;-0.90;99.90;;;;;;5031207;28;20037;-52
2021/01/30 04:00:24;;;;;;;16.70;7.93;;;-0.90;99.90;;;;;;5032269;28;20030;-53
2021/01/30 04:02:50;;;;;;;15.68;7.90;;;-0.90;99.90;;;;;;5031922;28;20026;-53
2021/01/30 04:05:19;;;;;;;13.77;7.45;;;-0.90;99.90;;;;;;5032018;28;20100;-54
2021/01/30 04:07:46;;;;;;;15.45;6.88;;;-0.90;99.90;;;;;;5032097;28;20068;-55
2021/01/30 04:10:16;;;;;;;9.50;5.97;;;-0.90;99.90;;;;;;5030649;28;20064;-53
2021/01/30 04:12:42;;;;;;;13.85;6.88;;;-0.80;99.90;;;;;;5031184;28;20477;-53
2021/01/30 04:15:11;;;;;;;11.93;6.85;;;-0.80;99.90;;;;;;5031845;28;20037;-52
2021/01/30 04:17:37;;;;;;;16.05;7.47;;;-0.80;99.90;;;;;;5032038;28;20416;-52
2021/01/30 04:20:04;;;;;;;11.40;6.65;;;-0.80;99.90;;;;;;5030767;28;20030;-52
2021/01/30 04:22:29;;;;;;;10.20;6.28;;;-0.80;99.90;;;;;;5031929;28;20021;-55
2021/01/30 04:24:55;;;;;;;11.70;6.00;;;-0.80;99.90;;;;;;5031743;28;20036;-51
2021/01/30 04:27:20;;;;;;;10.80;5.57;;;-0.70;99.90;;;;;;5030923;28;20465;-53
2021/01/30 04:29:46;;;;;;;11.00;6.32;;;-0.70;99.90;;;;;;5031848;28;20029;-52
2021/01/30 04:32:11;;;;;;;12.80;6.15;;;-0.70;99.90;;;;;;5031679;28;20035;-53
2021/01/30 04:34:37;;;;;;;8.68;4.78;;;-0.70;99.90;;;;;;5031894;28;20530;-52
2021/01/30 04:37:03;;;;;;;12.88;6.25;;;-0.70;99.90;;;;;;5031708;28;20041;-51
2021/01/30 04:39:29;;;;;;;12.30;6.70;;;-0.60;99.90;;;;;;5031950;28;20068;-52
2021/01/30 04:42:07;;;;;;;14.85;6.50;;;-0.60;99.90;;;;;;5030671;28;20435;-50
2021/01/30 04:45:03;;;;;;;11.98;6.07;;;-0.70;99.90;;;;;;5031585;28;20017;-51
2021/01/30 04:47:42;;;;;;;12.57;6.45;;;-0.70;99.90;;;;;;5031802;28;20037;-55
2021/01/30 04:50:48;;;;;;;13.27;6.85;;;-0.70;99.90;;;;;;5031444;28;20047;-51
2021/01/30 04:53:52;;;;;;;17.38;7.38;;;-0.70;99.90;;;;;;5034038;28;20049;-56
2021/01/30 04:56:50;;;;;;;13.40;6.80;;;-0.70;99.90;;;;;;5049244;28;20052;-52
2021/01/30 04:59:57;;;;;;;18.00;7.88;;;-0.70;99.90;;;;;;5034829;28;20067;-51
2021/01/30 05:03:00;;;;;;;12.57;6.47;;;-0.70;99.90;;;;;;5035031;28;20029;-52
2021/01/30 05:05:27;;;;;;;17.70;7.57;;;-0.70;99.90;;;;;;5034760;28;20025;-51
2021/01/30 05:07:58;;;;;;;15.23;8.10;;;-0.70;99.90;;;;;;5033767;28;20040;-51
2021/01/30 05:10:29;;;;;;;20.15;9.52;;;-0.70;99.90;;;;;;5034887;28;20021;-53
2021/01/30 05:13:06;;;;;;;30.00;11.82;;;-0.70;99.90;;;;;;5033981;28;20025;-55
2021/01/30 05:15:43;;;;;;;22.95;10.07;;;-0.70;99.90;;;;;;5034834;28;20420;-55
2021/01/30 05:18:29;;;;;;;21.73;9.25;;;-0.70;99.90;;;;;;5034572;28;20030;-52
2021/01/30 05:21:04;;;;;;;24.85;9.95;;;-0.70;99.90;;;;;;5034632;28;20368;-52
2021/01/30 05:23:33;;;;;;;25.90;10.43;;;-0.70;99.90;;;;;;5034714;28;20028;-55
2021/01/30 05:26:15;;;;;;;20.65;8.98;;;-0.70;99.90;;;;;;5034592;28;20057;-53
2021/01/30 05:29:07;;;;;;;22.92;9.38;;;-0.70;99.90;;;;;;5034550;28;20028;-51
2021/01/30 05:31:47;;;;;;;19.08;9.07;;;-0.70;99.90;;;;;;5034431;28;20477;-53
2021/01/30 05:34:26;;;;;;;22.50;10.57;;;-0.60;99.90;;;;;;5034481;28;20028;-54
2021/01/30 05:37:10;;;;;;;23.27;10.40;;;-0.60;99.90;;;;;;5034261;28;20038;-53
2021/01/30 05:39:46;;;;;;;27.05;11.32;;;-0.60;99.90;;;;;;5034489;28;20029;-49
2021/01/30 05:42:34;;;;;;;26.05;11.98;;;-0.60;99.90;;;;;;5033350;28;20388;-53
2021/01/30 05:45:29;;;;;;;26.70;10.98;;;-0.60;99.90;;;;;;5034168;28;20033;-52
2021/01/30 05:47:55;;;;;;;23.50;10.93;;;-0.50;99.90;;;;;;5021007;28;20042;-54
2021/01/30 05:50:29;;;;;;;21.17;9.52;;;-0.50;99.90;;;;;;5034070;28;20529;-51
2021/01/30 05:52:57;;;;;;;25.48;10.50;;;-0.50;99.90;;;;;;5033867;28;20049;-53
2021/01/30 05:55:26;;;;;;;23.15;10.50;;;-0.50;99.90;;;;;;5033963;28;20116;-52
2021/01/30 05:57:55;;;;;;;20.85;9.25;;;-0.50;99.90;;;;;;5033210;28;20025;-54
2021/01/30 06:00:22;;;;;;;18.05;8.98;;;-0.50;99.90;;;;;;5033724;28;20030;-54
2021/01/30 06:03:03;;;;;;;21.00;9.57;;;-0.50;99.90;;;;;;5033671;28;20021;-53
2021/01/30 06:05:37;;;;;;;25.23;10.05;;;-0.50;99.90;;;;;;5033235;28;20032;-55
2021/01/30 06:08:24;;;;;;;25.05;10.70;;;-0.50;99.90;;;;;;5033738;28;20036;-55
2021/01/30 06:11:07;;;;;;;21.00;10.77;;;-0.50;99.90;;;;;;5033871;28;20458;-53
2021/01/30 06:13:32;;;;;;;21.80;11.13;;;-0.50;99.90;;;;;;5033838;28;20025;-53
2021/01/30 06:16:00;;;;;;;29.23;12.13;;;-0.50;99.90;;;;;;5033440;28;20104;-51
2021/01/30 06:18:52;;;;;;;23.13;10.20;;;-0.50;99.90;;;;;;5033513;28;20036;-52
2021/01/30 06:21:22;;;;;;;26.33;10.40;;;-0.50;99.90;;;;;;5030310;28;20038;-52
2021/01/30 06:24:11;;;;;;;26.92;10.70;;;-0.40;99.90;;;;;;5033578;28;20026;-56
2021/01/30 06:26:47;;;;;;;25.98;10.93;;;-0.50;99.90;;;;;;5032541;28;20504;-53
2021/01/30 06:29:35;;;;;;;22.60;9.55;;;-0.50;99.90;;;;;;5033343;28;20022;-53
2021/01/30 06:32:18;;;;;;;28.85;10.18;;;-0.60;99.90;;;;;;5033123;28;20041;-56
2021/01/30 06:34:50;;;;;;;18.95;8.52;;;-0.70;99.90;;;;;;5033300;28;20036;-50
2021/01/30 06:37:49;;;;;;;29.08;10.85;;;-0.70;99.90;;;;;;5033049;28;20104;-52
2021/01/30 06:40:24;;;;;;;24.45;10.48;;;-0.80;99.90;;;;;;5031269;28;20069;-53
2021/01/30 06:42:53;;;;;;;26.42;10.95;;;-0.90;99.90;;;;;;5032241;28;20429;-55
2021/01/30 06:45:24;;;;;;;19.65;9.32;;;-0.90;99.90;;;;;;5033078;28;20413;-52
2021/01/30 06:47:50;;;;;;;18.73;9.10;;;-0.90;99.90;;;;;;5032984;28;20358;-53
2021/01/30 06:50:34;;;;;;;20.73;9.02;;;-0.90;99.90;;;;;;5033048;28;20068;-55
2021/01/30 06:53:20;;;;;;;18.00;8.90;;;-1.00;99.90;;;;;;5032917;28;20025;-53
2021/01/30 06:55:46;;;;;;;21.17;9.70;;;-1.00;99.90;;;;;;5032957;28;20108;-51
2021/01/30 06:58:32;;;;;;;22.30;9.82;;;-0.90;99.90;;;;;;5031931;28;20095;-49
2021/01/30 07:01:12;;;;;;;21.45;9.50;;;-0.90;99.90;;;;;;5032710;28;20025;-50
2021/01/30 07:04:08;;;;;;;26.20;10.20;;;-0.90;99.90;;;;;;5032872;28;20044;-54
2021/01/30 07:07:05;;;;;;;15.95;6.93;;;-0.90;99.90;;;;;;5032623;28;20030;-53
2021/01/30 07:09:58;;;;;;;19.52;9.05;;;-0.80;99.90;;;;;;5032825;28;20073;-51
2021/01/30 07:12:45;;;;;;;22.42;9.73;;;-0.70;99.90;;;;;;5031606;28;20032;-52
2021/01/30 07:15:20;;;;;;;;;;;-0.60;99.90;;;;;;5032896;28;20415;-52
2021/01/30 07:18:12;;;;;;;20.35;8.05;;;-0.60;99.90;;;;;;5032442;28;19955;-53
2021/01/30 07:20:53;;;;;;;23.73;9.40;;;-0.50;99.90;;;;;;5032532;28;20464;-54
2021/01/30 07:23:28;;;;;;;22.88;9.15;;;-0.40;99.90;;;;;;5032385;28;20101;-54
2021/01/30 07:26:16;;;;;;;21.05;9.40;;;-0.30;99.90;;;;;;5032491;28;20025;-54
2021/01/30 07:28:51;;;;;;;21.15;8.32;;;-0.30;99.90;;;;;;5032489;28;20026;-50
2021/01/30 07:31:28;;;;;;;22.40;8.90;;;-0.30;99.90;;;;;;5032174;28;20025;-54
2021/01/30 07:34:14;;;;;;;20.00;8.57;;;-0.20;99.90;;;;;;5032458;28;20108;-49
2021/01/30 07:36:50;;;;;;;22.77;10.77;;;0.00;99.90;;;;;;5032417;28;20381;-50
2021/01/30 07:39:25;;;;;;;19.25;7.88;;;0.10;99.90;;;;;;5031196;28;20029;-50
2021/01/30 07:41:55;;;;;;;13.55;6.38;;;0.20;99.90;;;;;;5031104;28;20113;-49
2021/01/30 07:44:30;;;;;;;20.42;9.90;;;0.30;99.90;;;;;;5032173;28;20136;-55
2021/01/30 07:47:07;;;;;;;19.40;8.50;;;0.40;99.90;;;;;;5032179;28;20033;-51
2021/01/30 07:49:36;;;;;;;18.67;9.07;;;0.50;99.90;;;;;;5031027;28;20389;-52
2021/01/30 07:52:10;;;;;;;19.05;8.82;;;0.50;99.90;;;;;;5031993;28;20041;-55
2021/01/30 07:54:45;;;;;;;18.10;8.20;;;0.50;99.90;;;;;;5031906;28;20092;-55
2021/01/30 07:57:13;;;;;;;16.73;8.13;;;0.60;99.90;;;;;;5031347;28;20025;-54
2021/01/30 07:59:55;;;;;;;18.23;8.20;;;0.70;99.90;;;;;;5032224;28;20556;-55
2021/01/30 08:02:51;;;;;;;22.83;9.57;;;0.80;99.90;;;;;;5031701;28;20029;-53
2021/01/30 08:05:39;;;;;;;16.40;7.47;;;0.80;99.90;;;;;;5032226;28;20588;-55
2021/01/30 08:08:18;;;;;;;18.17;7.25;;;1.00;99.90;;;;;;5032058;28;20377;-54
2021/01/30 08:10:57;;;;;;;17.58;6.63;;;1.20;99.90;;;;;;5032184;28;20029;-55
2021/01/30 08:13:45;;;;;;;15.30;7.75;;;1.30;99.90;;;;;;5031121;28;20101;-54
2021/01/30 08:16:16;;;;;;;18.50;8.15;;;1.30;99.90;;;;;;5029231;28;20033;-53
2021/01/30 08:18:44;;;;;;;16.80;7.30;;;1.30;99.90;;;;;;5030111;28;20100;-53
2021/01/30 08:21:16;;;;;;;13.82;6.97;;;1.30;99.90;;;;;;5020622;28;20088;-54
2021/01/30 08:23:53;;;;;;;14.00;7.25;;;1.30;99.90;;;;;;5026434;28;20065;-54
2021/01/30 08:26:38;;;;;;;11.93;6.28;;;1.30;99.90;;;;;;5029294;28;20052;-53
2021/01/30 08:29:25;;;;;;;14.98;6.75;;;1.30;99.90;;;;;;5034098;28;20032;-52
2021/01/30 08:31:55;;;;;;;12.85;6.25;;;1.30;99.90;;;;;;5033771;28;20100;-52
2021/01/30 08:34:20;;;;;;;13.18;6.57;;;1.30;99.90;;;;;;5031521;28;20127;-55
2021/01/30 08:37:20;;;;;;;14.48;6.18;;;1.30;99.90;;;;;;5033512;28;20108;-50
2021/01/30 08:40:01;;;;;;;14.30;6.45;;;1.40;99.90;;;;;;5033129;28;20528;-54
2021/01/30 08:42:29;;;;;;;14.68;6.97;;;1.40;99.90;;;;;;5032201;28;20026;-54
2021/01/30 08:45:06;;;;;;;11.38;5.05;;;1.50;99.90;;;;;;5032007;28;20017;-53
2021/01/30 08:47:34;;;;;;;13.07;6.00;;;1.50;99.90;;;;;;5032845;28;20071;-53
2021/01/30 08:50:20;;;;;;;12.15;6.15;;;1.60;99.90;;;;;;5031639;28;20029;-52
2021/01/30 08:52:56;;;;;;;10.52;5.07;;;1.60;99.90;;;;;;5031617;28;20548;-52
2021/01/30 08:55:24;;;;;;;10.82;5.35;;;1.70;99.90;;;;;;5031884;28;20049;-52
2021/01/30 08:57:50;;;;;;;15.38;6.65;;;1.80;99.90;;;;;;5032141;28;20034;-52
2021/01/30 09:00:27;;;;;;;12.60;6.00;;;1.90;99.90;;;;;;5033292;28;20032;-55
2021/01/30 09:03:05;;;;;;;11.52;4.93;;;1.90;99.90;;;;;;5032689;28;20037;-54
2021/01/30 09:05:33;;;;;;;9.48;4.75;;;1.90;99.90;;;;;;5032586;28;20036;-53
2021/01/30 09:08:19;;;;;;;11.52;5.38;;;2.00;99.90;;;;;;5033206;28;20021;-55
2021/01/30 09:10:44;;;;;;;9.68;5.47;;;2.20;99.90;;;;;;5032522;28;20030;-53
2021/01/30 09:13:53;;;;;;;8.13;4.72;;;2.30;99.90;;;;;;5031649;28;20041;-49
2021/01/30 09:16:21;;;;;;;10.10;4.97;;;2.50;99.90;;;;;;5032587;28;20112;-54
2021/01/30 09:18:48;;;;;;;8.30;4.88;;;2.60;99.90;;;;;;5032533;28;20660;-49
2021/01/30 09:21:42;;;;;;;12.20;6.20;;;2.70;99.90;;;;;;5032411;28;20060;-52
2021/01/30 09:24:27;;;;;;;9.82;5.40;;;2.80;99.90;;;;;;5028228;28;20397;-54
2021/01/30 09:27:13;;;;;;;7.57;4.38;;;2.80;99.90;;;;;;5031626;28;20056;-54
2021/01/30 09:29:42;;;;;;;8.98;4.95;;;2.80;99.90;;;;;;5032596;28;20025;-54
2021/01/30 09:32:12;;;;;;;7.40;4.72;;;2.70;99.90;;;;;;5032657;28;20079;-52
2021/01/30 09:34:54;;;;;;;8.85;4.93;;;2.70;99.90;;;;;;5031687;28;20492;-52
2021/01/30 09:37:40;;;;;;;8.82;5.07;;;2.70;99.90;;;;;;5032368;28;20472;-55
2021/01/30 09:40:26;;;;;;;9.13;4.00;;;2.80;99.90;;;;;;5031239;28;20502;-55
2021/01/30 09:43:08;;;;;;;6.88;3.55;;;2.80;99.90;;;;;;5031400;28;20061;-54
2021/01/30 09:45:35;;;;;;;6.10;3.63;;;2.80;99.90;;;;;;5031313;28;20036;-52
2021/01/30 09:48:14;;;;;;;8.23;4.50;;;2.80;99.90;;;;;;5032569;28;20108;-49
2021/01/30 09:50:53;;;;;;;6.07;3.85;;;2.80;99.90;;;;;;5032288;28;20029;-53
2021/01/30 09:53:52;;;;;;;7.82;4.75;;;2.90;99.90;;;;;;5029158;28;20045;-55
2021/01/30 09:56:23;;;;;;;8.25;3.97;;;3.00;99.90;;;;;;5019129;28;20037;-51
2021/01/30 09:58:56;;;;;;;7.15;3.72;;;3.10;99.90;;;;;;5031736;28;20029;-54
2021/01/30 10:01:28;;;;;;;6.68;4.32;;;3.00;99.90;;;;;;5031829;28;20025;-53
2021/01/30 10:03:53;;;;;;;6.38;3.70;;;3.00;99.90;;;;;;5031726;28;20030;-54
2021/01/30 10:06:46;;;;;;;8.57;4.47;;;2.90;99.90;;;;;;5031851;28;20498;-54
2021/01/30 10:09:16;;;;;;;6.13;3.50;;;3.00;99.90;;;;;;5031504;28;20029;-53
2021/01/30 10:11:46;;;;;;;6.95;3.95;;;3.10;99.90;;;;;;5030848;28;20036;-55
2021/01/30 10:14:15;;;;;;;8.90;4.40;;;3.30;99.90;;;;;;5031254;28;20231;-54
2021/01/30 10:16:44;;;;;;;7.50;4.75;;;3.50;99.90;;;;;;5031587;28;20079;-54
2021/01/30 10:19:23;;;;;;;8.23;3.92;;;3.70;99.90;;;;;;5031700;28;20424;-52
2021/01/30 10:21:49;;;;;;;4.97;3.35;;;3.90;99.90;;;;;;5030084;28;20496;-54
2021/01/30 10:24:19;;;;;;;6.22;3.35;;;4.00;99.90;;;;;;5031619;28;20038;-54
2021/01/30 10:26:48;;;;;;;4.47;3.03;;;4.00;99.90;;;;;;5029094;28;20025;-54
2021/01/30 10:29:20;;;;;;;5.40;3.17;;;3.80;99.90;;;;;;5031425;28;20013;-53
2021/01/30 10:32:00;;;;;;;5.10;3.17;;;3.70;99.90;;;;;;5031233;28;20021;-50
2021/01/30 10:34:45;;;;;;;6.05;2.92;;;3.60;99.90;;;;;;5031821;28;20036;-51
2021/01/30 10:37:36;;;;;;;3.75;2.70;;;3.50;99.90;;;;;;5031389;28;20041;-51
2021/01/30 10:40:06;;;;;;;4.25;2.72;;;3.50;99.90;;;;;;5031612;28;20511;-55
2021/01/30 10:42:34;;;;;;;5.90;3.40;;;3.50;99.90;;;;;;5030715;28;20025;-51
2021/01/30 10:45:20;;;;;;;4.50;3.22;;;3.60;99.90;;;;;;5031328;28;20045;-51
2021/01/30 10:47:51;;;;;;;5.22;2.90;;;3.60;99.90;;;;;;5031339;28;20030;-54
2021/01/30 10:50:26;;;;;;;5.18;3.30;;;3.70;99.90;;;;;;5030966;28;20067;-53
2021/01/30 10:52:51;;;;;;;5.87;3.37;;;3.80;99.90;;;;;;5031065;28;20033;-54
2021/01/30 10:55:37;;;;;;;7.03;4.15;;;3.90;99.90;;;;;;5030181;28;20318;-53
2021/01/30 10:58:15;;;;;;;6.50;4.53;;;3.90;97.90;;;;;;5030226;28;20074;-55
2021/01/30 11:00:40;;;;;;;7.38;4.25;;;3.70;97.40;;;;;;5031159;28;20264;-55
2021/01/30 11:03:25;;;;;;;7.88;4.00;;;3.60;98.50;;;;;;5031134;28;20078;-54
2021/01/30 11:05:52;;;;;;;6.25;4.28;;;3.50;98.90;;;;;;5031034;28;20108;-56
2021/01/30 11:08:29;;;;;;;4.70;2.90;;;3.40;98.50;;;;;;5031292;28;20468;-53
2021/01/30 11:11:05;;;;;;;6.18;3.08;;;3.40;97.10;;;;;;5030741;28;20072;-54
2021/01/30 11:13:38;;;;;;;6.68;3.15;;;3.50;98.40;;;;;;5031048;28;20409;-50
2021/01/30 11:16:12;;;;;;;6.15;3.13;;;3.60;98.20;;;;;;5031204;28;20117;-51
2021/01/30 11:18:40;;;;;;;4.72;2.40;;;3.80;98.60;;;;;;5031035;28;20048;-52
2021/01/30 11:21:11;;;;;;;3.67;2.25;;;3.80;97.00;;;;;;5030815;28;20056;-49
2021/01/30 11:23:46;;;;;;;3.92;1.85;;;3.90;97.80;;;;;;5030873;28;20037;-53
2021/01/30 11:26:20;;;;;;;2.85;1.80;;;3.90;96.40;;;;;;5029988;28;20025;-54
2021/01/30 11:28:47;;;;;;;2.42;1.73;;;3.90;96.00;;;;;;5030811;28;20047;-51
2021/01/30 11:31:14;;;;;;;1.90;1.45;;;3.80;95.90;;;;;;5030897;28;20021;-53
2021/01/30 11:33:42;;;;;;;4.20;1.88;;;3.90;96.30;;;;;;5030611;28;20489;-55
2021/01/30 11:36:11;;;;;;;3.45;1.70;;;3.90;96.50;;;;;;5031061;28;20570;-56
2021/01/30 11:38:37;;;;;;;2.13;1.63;;;3.90;95.30;;;;;;5030794;28;20369;-52
2021/01/30 11:41:03;;;;;;;3.05;1.48;;;3.90;94.50;;;;;;5030038;28;20715;-52
2021/01/30 11:43:28;;;;;;;1.65;1.50;;;3.90;94.60;;;;;;5030874;28;20030;-55
2021/01/30 11:45:55;;;;;;;2.05;1.30;;;4.00;93.70;;;;;;5030733;28;20021;-54
2021/01/30 11:48:21;;;;;;;1.63;1.40;;;4.00;93.30;;;;;;5030775;28;20028;-53
2021/01/30 11:50:49;;;;;;;2.53;1.48;;;4.10;94.00;;;;;;5030578;28;20063;-55
2021/01/30 11:53:22;;;;;;;2.70;1.35;;;4.00;93.70;;;;;;5030467;28;20095;-52
2021/01/30 11:55:48;;;;;;;1.23;1.00;;;4.00;92.90;;;;;;5030592;28;20026;-52
2021/01/30 11:58:15;;;;;;;2.28;1.55;;;3.80;92.20;;;;;;5029894;28;20104;-51
2021/01/30 12:00:41;;;;;;;2.35;1.65;;;3.70;93.30;;;;;;5030354;28;20116;-54
2021/01/30 12:03:22;;;;;;;2.65;1.52;;;3.70;93.10;;;;;;5033352;28;20159;-54
2021/01/30 12:05:47;;;;;;;4.07;2.53;;;3.80;93.00;;;;;;5034520;28;20648;-55
2021/01/30 12:08:13;;;;;;;3.28;2.00;;;3.80;93.60;;;;;;5034505;28;20022;-54
2021/01/30 12:10:38;;;;;;;3.20;2.60;;;3.90;93.50;;;;;;5034331;28;20021;-54
2021/01/30 12:13:04;;;;;;;4.60;2.85;;;3.90;93.30;;;;;;5033681;28;20033;-56
2021/01/30 12:15:29;;;;;;;2.92;2.03;;;4.00;93.20;;;;;;5034165;28;20124;-54
2021/01/30 12:17:54;;;;;;;1.45;1.35;;;4.00;92.50;;;;;;5035283;28;20209;-53
2021/01/30 12:20:26;;;;;;;2.55;1.38;;;4.00;92.20;;;;;;5035252;28;20057;-50
2021/01/30 12:22:51;;;;;;;2.10;1.30;;;4.10;91.60;;;;;;5034889;28;20541;-54
2021/01/30 12:25:18;;;;;;;1.52;1.13;;;4.10;91.70;;;;;;5035187;28;20136;-53
2021/01/30 12:27:52;;;;;;;1.83;1.33;;;4.00;92.00;;;;;;5020872;28;20036;-54
2021/01/30 12:30:20;;;;;;;1.20;1.10;;;3.90;92.60;;;;;;5034927;28;20140;-53
2021/01/30 12:32:46;;;;;;;1.55;1.20;;;3.70;92.40;;;;;;5034822;28;20096;-51
2021/01/30 12:35:13;;;;;;;1.55;1.20;;;3.50;92.00;;;;;;5034882;28;20141;-53
2021/01/30 12:37:39;;;;;;;2.78;1.08;;;3.20;92.70;;;;;;5033531;28;20029;-52
2021/01/30 12:40:05;;;;;;;2.17;0.80;;;3.00;91.80;;;;;;5034818;28;20036;-50
2021/01/30 12:42:31;;;;;;;1.75;1.10;;;2.90;93.00;;;;;;5033690;28;20487;-54
2021/01/30 12:44:56;;;;;;;1.13;1.00;;;2.80;92.80;;;;;;5034605;28;20033;-53
2021/01/30 12:47:29;;;;;;;1.90;1.10;;;2.80;93.10;;;;;;5033637;28;20021;-55
2021/01/30 12:49:55;;;;;;;0.85;0.82;;;2.90;93.60;;;;;;5033184;28;20095;-53
2021/01/30 12:52:21;;;;;;;3.47;1.08;;;3.10;93.60;;;;;;5034732;28;20029;-54
2021/01/30 12:54:47;;;;;;;1.77;1.05;;;3.40;93.40;;;;;;5033992;28;20133;-52
2021/01/30 12:57:12;;;;;;;1.45;1.08;;;3.60;92.00;;;;;;5033820;28;20159;-54
2021/01/30 12:59:38;;;;;;;1.15;0.93;;;3.80;90.70;;;;;;5034411;28;20026;-53
2021/01/30 13:02:04;;;;;;;2.00;1.10;;;4.00;91.10;;;;;;5034407;28;20038;-54
2021/01/30 13:04:31;;;;;;;1.70;1.30;;;4.00;88.50;;;;;;5033987;28;20026;-53
2021/01/30 13:06:56;;;;;;;1.08;0.98;;;3.90;90.00;;;;;;5034445;28;20041;-51
2021/01/30 13:09:22;;;;;;;1.42;0.93;;;3.90;90.30;;;;;;5034040;28;20030;-54
2021/01/30 13:11:48;;;;;;;1.60;1.13;;;3.80;90.30;;;;;;5033198;28;20040;-52
2021/01/30 13:14:15;;;;;;;1.48;1.10;;;3.80;90.70;;;;;;5033736;28;20041;-49
2021/01/30 13:16:40;;;;;;;1.30;1.02;;;3.70;90.30;;;;;;5034172;28;20037;-55